Time;durP1;ratioP1;P1;durP2;ratioP2;P2;SDS_P1;SDS_P2;PMS_P1;PMS_P2;Temp;Humidity;BMP_temperature;BMP_pressure;BME280_temperature;BME280_humidity;BME280_pressure;Samples;Min_cycle;Max_cycle;Signal;HPM_P1;HPM_P2
2022/03/28 00:02:10;;;;;;;;;;;13.50;95.20;;;;;;4287126;33;44324;-86
2022/03/28 00:04:37;;;;;;;;;;;13.50;95.50;;;;;;4274236;33;43080;-86
2022/03/28 00:07:04;;;;;;;;;;;13.50;95.10;;;;;;4274103;33;44971;-86
2022/03/28 00:09:31;;;;;;;;;;;13.40;95.10;;;;;;4287197;33;43454;-86
2022/03/28 00:11:58;;;;;;;;;;;13.50;95.10;;;;;;4287096;33;43494;-86
2022/03/28 00:14:25;;;;;;;;;;;13.40;95.00;;;;;;4274701;33;43106;-86
2022/03/28 00:16:55;;;;;;;;;;;13.40;95.00;;;;;;4287213;33;43484;-87
2022/03/28 00:19:22;;;;;;;;;;;13.40;95.20;;;;;;4287088;33;43406;-86
2022/03/28 00:21:49;;;;;;;;;;;13.40;95.10;;;;;;4274008;33;42691;-86
2022/03/28 00:24:16;;;;;;;;;;;13.30;95.00;;;;;;4287026;33;44685;-86
2022/03/28 00:26:43;;;;;;;;;;;13.30;95.20;;;;;;4285840;33;43203;-86
2022/03/28 00:29:11;;;;;;;;;;;13.30;95.20;;;;;;4286130;33;43564;-86
2022/03/28 00:31:38;;;;;;;;;;;13.20;95.30;;;;;;4286657;33;43778;-86
2022/03/28 00:34:06;;;;;;;;;;;13.20;95.40;;;;;;4287250;33;43297;-86
2022/03/28 00:36:33;;;;;;;;;;;13.20;95.50;;;;;;4286213;33;43187;-86
2022/03/28 00:39:00;;;;;;;;;;;13.20;95.40;;;;;;4285941;33;43519;-86
2022/03/28 00:41:27;;;;;;;;;;;13.20;95.40;;;;;;4286095;33;43942;-87
2022/03/28 00:43:55;;;;;;;;;;;13.20;95.40;;;;;;4287123;33;45333;-86
2022/03/28 00:46:22;;;;;;;;;;;13.20;95.30;;;;;;4285918;33;43479;-86
2022/03/28 00:48:50;;;;;;;;;;;13.10;95.50;;;;;;4286660;33;42837;-86
2022/03/28 00:51:18;;;;;;;;;;;13.10;95.50;;;;;;4286741;33;43151;-86
2022/03/28 00:53:45;;;;;;;;;;;13.00;95.50;;;;;;4285869;33;43439;-86
2022/03/28 00:56:13;;;;;;;;;;;13.00;95.60;;;;;;4287109;33;44010;-86
2022/03/28 00:58:40;;;;;;;;;;;13.00;95.60;;;;;;4286031;33;44607;-86
2022/03/28 01:01:09;;;;;;;;;;;13.00;95.60;;;;;;4287038;33;44802;-87
2022/03/28 01:03:37;;;;;;;;;;;13.00;95.70;;;;;;4285976;33;44387;-87
2022/03/28 01:06:05;;;;;;;;;;;13.00;95.60;;;;;;4286888;33;43371;-87
2022/03/28 01:08:35;;;;;;;;;;;13.00;95.50;;;;;;4286555;33;45767;-87
2022/03/28 01:11:06;;;;;;;;;;;12.90;95.60;;;;;;4287677;33;20014;-86
2022/03/28 01:13:34;;;;;;;;;;;12.90;95.70;;;;;;4287006;33;42896;-86
2022/03/28 01:16:02;;;;;;;;;;;12.80;95.90;;;;;;4286853;33;44670;-86
2022/03/28 01:18:30;;;;;;;;;;;12.80;96.00;;;;;;4286556;33;43490;-87
2022/03/28 01:20:58;;;;;;;;;;;12.80;96.00;;;;;;4286658;33;43790;-86
2022/03/28 01:23:25;;;;;;;;;;;12.80;96.10;;;;;;4286703;33;43331;-86
2022/03/28 01:25:53;;;;;;;;;;;12.80;96.00;;;;;;4286777;33;44307;-86
2022/03/28 01:28:21;;;;;;;;;;;12.80;95.80;;;;;;4286557;33;42680;-86
2022/03/28 01:30:48;;;;;;;;;;;12.80;95.80;;;;;;4285393;33;44608;-86
2022/03/28 01:33:15;;;;;;;;;;;12.80;95.70;;;;;;4286848;33;44711;-86
2022/03/28 01:35:46;;;;;;;;;;;12.80;95.70;;;;;;4286595;33;43322;-86
2022/03/28 01:38:15;;;;;;;;;;;12.80;95.80;;;;;;4287056;33;44237;-86
2022/03/28 01:40:43;;;;;;;;;;;12.80;95.50;;;;;;4286848;33;44048;-86
2022/03/28 01:43:11;;;;;;;;;;;12.80;95.60;;;;;;4286375;33;44022;-86
2022/03/28 01:45:38;;;;;;;;;;;12.80;95.60;;;;;;4276910;33;43823;-86
2022/03/28 01:48:06;;;;;;;;;;;12.70;96.00;;;;;;4289338;33;43202;-87
2022/03/28 01:50:33;;;;;;;;;;;12.70;95.80;;;;;;4287932;33;44228;-86
2022/03/28 01:53:01;;;;;;;;;;;12.70;95.70;;;;;;4288540;33;43426;-86
2022/03/28 01:55:28;;;;;;;;;;;12.70;95.80;;;;;;4289530;33;43197;-86
2022/03/28 01:57:55;;;;;;;;;;;12.70;96.10;;;;;;4289373;33;44532;-86
2022/03/28 02:00:27;;;;;;;;;;;12.70;96.30;;;;;;4289050;33;42953;-86
2022/03/28 02:02:54;;;;;;;;;;;12.60;96.40;;;;;;4287890;33;44086;-86
2022/03/28 02:05:22;;;;;;;;;;;12.60;96.70;;;;;;4288005;33;45879;-86
2022/03/28 02:07:50;;;;;;;;;;;12.50;97.00;;;;;;4275929;33;43245;-86
2022/03/28 02:10:19;;;;;;;;;;;12.50;96.90;;;;;;4289042;33;44559;-86
2022/03/28 02:12:47;;;;;;;;;;;12.50;96.80;;;;;;4288966;33;43022;-86
2022/03/28 02:15:14;;;;;;;;;;;12.40;96.90;;;;;;4287665;33;43770;-86
2022/03/28 02:17:41;;;;;;;;;;;12.40;97.20;;;;;;4288907;33;43795;-86
2022/03/28 02:20:09;;;;;;;;;;;12.40;97.10;;;;;;4288673;33;44304;-86
2022/03/28 02:22:36;;;;;;;;;;;12.40;97.30;;;;;;4287708;33;45128;-86
2022/03/28 02:25:04;;;;;;;;;;;12.40;97.30;;;;;;4288672;33;44259;-87
2022/03/28 02:27:32;;;;;;;;;;;12.40;97.20;;;;;;4287649;33;42787;-86
2022/03/28 02:29:59;;;;;;;;;;;12.40;97.30;;;;;;4287745;33;42427;-86
2022/03/28 02:32:26;;;;;;;;;;;12.40;97.50;;;;;;4276187;33;44024;-87
2022/03/28 02:34:53;;;;;;;;;;;12.40;97.40;;;;;;4288902;33;44023;-86
2022/03/28 02:37:20;;;;;;;;;;;12.40;97.40;;;;;;4288486;33;43874;-87
2022/03/28 02:39:48;;;;;;;;;;;12.40;97.50;;;;;;4288997;33;45722;-86
2022/03/28 02:42:15;;;;;;;;;;;12.30;97.40;;;;;;4276153;33;45188;-86
2022/03/28 02:44:42;;;;;;;;;;;12.40;97.50;;;;;;4288358;33;44118;-86
2022/03/28 02:47:09;;;;;;;;;;;12.40;97.50;;;;;;4288625;33;44172;-86
2022/03/28 02:49:36;;;;;;;;;;;12.40;97.40;;;;;;4288306;33;44024;-86
2022/03/28 02:52:03;;;;;;;;;;;12.40;97.20;;;;;;4288566;33;44475;-86
2022/03/28 02:54:30;;;;;;;;;;;12.40;97.20;;;;;;4286739;33;43300;-86
2022/03/28 02:56:57;;;;;;;;;;;12.40;97.00;;;;;;4288121;33;44218;-86
2022/03/28 02:59:24;;;;;;;;;;;12.40;97.10;;;;;;4287370;33;42711;-86
2022/03/28 03:01:51;;;;;;;;;;;12.40;97.20;;;;;;4288118;33;44295;-86
2022/03/28 03:04:19;;;;;;;;;;;12.40;97.00;;;;;;4287170;33;44193;-86
2022/03/28 03:06:46;;;;;;;;;;;12.40;96.90;;;;;;4288374;33;44534;-86
2022/03/28 03:09:13;;;;;;;;;;;12.40;96.80;;;;;;4286937;33;43885;-86
2022/03/28 03:11:40;;;;;;;;;;;12.40;96.90;;;;;;4275054;33;44913;-86
2022/03/28 03:14:07;;;;;;;;;;;12.40;96.90;;;;;;4288322;33;43201;-86
2022/03/28 03:16:34;;;;;;;;;;;12.30;96.80;;;;;;4287425;33;42131;-86
2022/03/28 03:19:01;;;;;;;;;;;12.30;96.90;;;;;;4275390;33;45691;-86
2022/03/28 03:21:28;;;;;;;;;;;12.30;96.80;;;;;;4288051;33;43364;-86
2022/03/28 03:23:55;;;;;;;;;;;12.30;96.70;;;;;;4275313;33;43184;-86
2022/03/28 03:26:22;;;;;;;;;;;12.30;96.60;;;;;;4288271;33;44108;-86
2022/03/28 03:28:50;;;;;;;;;;;12.30;96.40;;;;;;4287111;33;44357;-86
2022/03/28 03:31:17;;;;;;;;;;;12.30;96.50;;;;;;4287661;33;43521;-86
2022/03/28 03:33:44;;;;;;;;;;;12.30;96.60;;;;;;4287597;33;44378;-86
2022/03/28 03:36:11;;;;;;;;;;;12.30;96.70;;;;;;4287708;33;43970;-86
2022/03/28 03:38:38;;;;;;;;;;;12.20;96.90;;;;;;4287686;33;43819;-86
2022/03/28 03:41:05;;;;;;;;;;;12.20;96.60;;;;;;4287706;33;43758;-86
2022/03/28 03:43:32;;;;;;;;;;;12.20;96.50;;;;;;4288126;33;43867;-86
2022/03/28 03:45:59;;;;;;;;;;;12.20;96.40;;;;;;4287956;33;43917;-86
2022/03/28 03:48:27;;;;;;;;;;;12.20;96.40;;;;;;4275054;33;43307;-86
2022/03/28 03:50:54;;;;;;;;;;;12.20;96.20;;;;;;4287640;33;43626;-86
2022/03/28 03:53:21;;;;;;;;;;;12.20;96.20;;;;;;4287651;33;45299;-86
2022/03/28 03:55:48;;;;;;;;;;;12.20;96.10;;;;;;4286260;33;45170;-86
2022/03/28 03:58:15;;;;;;;;;;;12.10;96.10;;;;;;4287336;33;43313;-86
2022/03/28 04:00:42;;;;;;;;;;;12.10;96.10;;;;;;4274632;33;43297;-86
2022/03/28 04:03:10;;;;;;;;;;;12.10;96.20;;;;;;4287157;33;43000;-86
2022/03/28 04:05:37;;;;;;;;;;;12.10;96.20;;;;;;4286537;33;45554;-86
2022/03/28 04:08:05;;;;;;;;;;;12.10;96.30;;;;;;4286211;33;44907;-86
2022/03/28 04:10:34;;;;;;;;;;;12.10;96.40;;;;;;4274819;33;43980;-86
2022/03/28 04:13:02;;;;;;;;;;;12.10;96.40;;;;;;4287067;33;45120;-86
2022/03/28 04:15:29;;;;;;;;;;;12.10;96.40;;;;;;4287135;33;43329;-86
2022/03/28 04:17:56;;;;;;;;;;;12.00;96.30;;;;;;4286081;33;42436;-86
2022/03/28 04:20:25;;;;;;;;;;;12.00;96.60;;;;;;4286040;33;44753;-86
2022/03/28 04:22:53;;;;;;;;;;;12.00;96.10;;;;;;4274407;33;44191;-86
2022/03/28 04:25:20;;;;;;;;;;;12.00;96.00;;;;;;4286016;33;42691;-86
2022/03/28 04:27:47;;;;;;;;;;;12.00;95.90;;;;;;4287502;33;42618;-86
2022/03/28 04:30:14;;;;;;;;;;;12.00;95.90;;;;;;4286889;33;43490;-86
2022/03/28 04:32:41;;;;;;;;;;;11.90;96.10;;;;;;4286868;33;42839;-86
2022/03/28 04:35:09;;;;;;;;;;;11.90;96.20;;;;;;4274146;33;42740;-86
2022/03/28 04:37:37;;;;;;;;;;;11.90;96.20;;;;;;4286919;33;45754;-86
2022/03/28 04:40:05;;;;;;;;;;;11.90;96.20;;;;;;4287274;33;43980;-86
2022/03/28 04:42:33;;;;;;;;;;;11.90;96.20;;;;;;4287344;33;43232;-86
2022/03/28 04:45:00;;;;;;;;;;;11.90;96.10;;;;;;4286037;33;45083;-86
2022/03/28 04:47:29;;;;;;;;;;;11.90;96.20;;;;;;4285765;33;43917;-86
2022/03/28 04:49:57;;;;;;;;;;;11.90;96.10;;;;;;4286039;33;45690;-85
2022/03/28 04:52:24;;;;;;;;;;;11.80;96.00;;;;;;4285749;33;43330;-85
2022/03/28 04:54:51;;;;;;;;;;;11.90;96.00;;;;;;4287132;33;44469;-85
2022/03/28 04:57:18;;;;;;;;;;;11.80;96.10;;;;;;4286643;33;43434;-86
2022/03/28 04:59:45;;;;;;;;;;;11.80;96.10;;;;;;4286827;33;44710;-85
2022/03/28 05:02:12;;;;;;;;;;;11.80;96.00;;;;;;4273959;33;43478;-86
2022/03/28 05:04:40;;;;;;;;;;;11.70;95.90;;;;;;4287009;33;44932;-85
2022/03/28 05:07:07;;;;;;;;;;;11.70;95.90;;;;;;4285632;33;43106;-86
2022/03/28 05:09:34;;;;;;;;;;;11.70;95.90;;;;;;4286762;33;43361;-85
2022/03/28 05:12:01;;;;;;;;;;;11.70;96.00;;;;;;4273893;33;44278;-85
2022/03/28 05:14:29;;;;;;;;;;;11.70;96.00;;;;;;4273831;33;43239;-86
2022/03/28 05:16:56;;;;;;;;;;;11.70;96.00;;;;;;4285605;33;43853;-85
2022/03/28 05:19:23;;;;;;;;;;;11.70;96.10;;;;;;4275823;33;44117;-85
2022/03/28 05:21:50;;;;;;;;;;;11.70;96.10;;;;;;4289569;33;43801;-86
2022/03/28 05:24:17;;;;;;;;;;;11.70;96.10;;;;;;4276883;33;43060;-85
2022/03/28 05:26:44;;;;;;;;;;;11.60;96.00;;;;;;4288221;33;43410;-85
2022/03/28 05:29:11;;;;;;;;;;;11.60;96.00;;;;;;4289991;33;44183;-86
2022/03/28 05:31:38;;;;;;;;;;;11.60;95.90;;;;;;4289820;33;43359;-85
2022/03/28 05:34:05;;;;;;;;;;;11.60;95.80;;;;;;4289763;33;45711;-86
2022/03/28 05:36:32;;;;;;;;;;;11.60;95.80;;;;;;4289622;33;44134;-85
2022/03/28 05:39:00;;;;;;;;;;;11.60;95.80;;;;;;4276268;33;44466;-86
2022/03/28 05:41:27;;;;;;;;;;;11.60;95.80;;;;;;4289100;33;43970;-86
2022/03/28 05:43:54;;;;;;;;;;;11.60;95.80;;;;;;4288087;33;44171;-85
2022/03/28 05:46:21;;;;;;;;;;;11.60;95.70;;;;;;4276403;33;43915;-85
2022/03/28 05:48:52;;;;;;;;;;;11.50;95.60;;;;;;4276761;33;44458;-86
2022/03/28 05:51:20;;;;;;;;;;;11.50;95.60;;;;;;4288371;33;44706;-85
2022/03/28 05:53:47;;;;;;;;;;;11.50;95.70;;;;;;4288387;33;44287;-85
2022/03/28 05:56:14;;;;;;;;;;;11.50;95.70;;;;;;4289118;33;43868;-85
2022/03/28 05:58:41;;;;;;;;;;;11.50;96.00;;;;;;4289046;33;43482;-86
2022/03/28 06:01:08;;;;;;;;;;;11.50;96.00;;;;;;4288442;33;44399;-86
2022/03/28 06:03:37;;;;;;;;;;;11.50;96.00;;;;;;4283391;33;43869;-85
2022/03/28 06:06:07;;;;;;;;;;;11.40;96.00;;;;;;4260864;33;43544;-85
2022/03/28 06:08:35;;;;;;;;;;;11.40;96.00;;;;;;4259703;33;44621;-86
2022/03/28 06:11:03;;;;;;;;;;;11.40;96.30;;;;;;4271060;33;43395;-86
2022/03/28 06:13:31;;;;;;;;;;;11.40;96.70;;;;;;4259523;33;44136;-85
2022/03/28 06:16:01;;;;;;;;;;;11.30;96.90;;;;;;4260309;33;44412;-86
2022/03/28 06:18:29;;;;;;;;;;;11.30;96.90;;;;;;4259648;33;42951;-86
2022/03/28 06:20:56;;;;;;;;;;;11.20;97.00;;;;;;4260671;33;44306;-85
2022/03/28 06:23:23;;;;;;;;;;;11.30;97.30;;;;;;4260080;33;43896;-86
2022/03/28 06:25:50;;;;;;;;;;;11.30;97.30;;;;;;4260131;33;44975;-86
2022/03/28 06:28:17;;;;;;;;;;;11.20;97.20;;;;;;4271292;33;43088;-86
2022/03/28 06:30:45;;;;;;;;;;;11.30;97.20;;;;;;4259457;33;44329;-85
2022/03/28 06:33:12;;;;;;;;;;;11.30;97.20;;;;;;4258949;33;44210;-86
2022/03/28 06:35:40;;;;;;;;;;;11.30;97.30;;;;;;4271154;33;44075;-85
2022/03/28 06:38:07;;;;;;;;;;;11.30;97.60;;;;;;4259196;33;42505;-85
2022/03/28 06:40:34;;;;;;;;;;;11.30;97.80;;;;;;4260529;33;46116;-85
2022/03/28 06:43:02;;;;;;;;;;;11.30;98.00;;;;;;4270886;33;43881;-85
2022/03/28 06:45:29;;;;;;;;;;;11.30;98.80;;;;;;4259041;33;43003;-85
2022/03/28 06:47:56;;;;;;;;;;;11.30;99.10;;;;;;4260381;33;43212;-85
2022/03/28 06:50:43;;;;;;;;;;;11.30;99.50;;;;;;4269165;33;44982;-85
2022/03/28 06:53:10;;;;;;;;;;;11.30;99.50;;;;;;4259825;33;42328;-85
2022/03/28 06:55:37;;;;;;;;;;;11.30;99.60;;;;;;4270434;33;43298;-85
2022/03/28 06:58:04;;;;;;;;;;;11.20;99.90;;;;;;4270361;33;42668;-85
2022/03/28 07:00:33;;;;;;;;;;;11.30;99.90;;;;;;4270663;33;43404;-85
2022/03/28 07:03:00;;;;;;;;;;;11.30;99.90;;;;;;4284415;33;43603;-86
2022/03/28 07:05:28;;;;;;;;;;;11.30;99.90;;;;;;4273688;33;44331;-85
2022/03/28 07:07:58;;;;;;;;;;;11.30;99.90;;;;;;4273423;33;44050;-86
2022/03/28 07:10:26;;;;;;;;;;;11.30;99.90;;;;;;4273886;33;44808;-85
2022/03/28 07:12:59;;;;;;;;;;;11.40;99.90;;;;;;4273337;33;20023;-86
2022/03/28 07:15:27;;;;;;;;;;;11.40;99.90;;;;;;4272530;33;42740;-86
2022/03/28 07:17:57;;;;;;;;;;;11.40;99.90;;;;;;4284346;33;45707;-85
2022/03/28 07:20:26;;;;;;;;;;;11.40;99.90;;;;;;4273847;33;43873;-85
2022/03/28 07:22:54;;;;;;;;;;;11.50;99.90;;;;;;4284831;33;43607;-85
2022/03/28 07:25:21;;;;;;;;;;;11.50;99.90;;;;;;4273826;33;44025;-85
2022/03/28 07:27:50;;;;;;;;;;;11.50;99.90;;;;;;4273705;33;44169;-85
2022/03/28 07:30:17;;;;;;;;;;;11.60;99.90;;;;;;4273343;33;43002;-85
2022/03/28 07:32:45;;;;;;;;;;;11.60;99.90;;;;;;4272358;33;43454;-85
2022/03/28 07:35:12;;;;;;;;;;;11.60;99.90;;;;;;4273643;33;44356;-85
2022/03/28 07:37:40;;;;;;;;;;;11.60;99.90;;;;;;4273747;33;43125;-85
2022/03/28 07:40:08;;;;;;;;;;;11.60;99.90;;;;;;4284453;33;43891;-85
2022/03/28 07:42:35;;;;;;;;;;;11.70;99.90;;;;;;4284064;33;42554;-85
2022/03/28 07:45:05;;;;;;;;;;;11.70;99.90;;;;;;4273210;33;43014;-85
2022/03/28 07:47:34;;;;;;;;;;;11.70;99.90;;;;;;4272082;33;42732;-85
2022/03/28 07:50:02;;;;;;;;;;;11.70;99.90;;;;;;4272022;33;44261;-85
2022/03/28 07:52:29;;;;;;;;;;;11.80;99.90;;;;;;4272189;33;44343;-85
2022/03/28 07:54:57;;;;;;;;;;;11.70;99.90;;;;;;4272338;33;44188;-85
2022/03/28 07:57:24;;;;;;;;;;;11.80;99.90;;;;;;4271988;33;43421;-85
2022/03/28 07:59:51;;;;;;;;;;;11.80;99.90;;;;;;4272089;33;42716;-85
2022/03/28 08:02:38;;;;;;;;;;;11.80;99.90;;;;;;4282362;33;45246;-84
2022/03/28 08:05:07;;;;;;;;;;;11.80;99.90;;;;;;4273213;33;42747;-84
2022/03/28 08:07:34;;;;;;;;;;;11.80;99.90;;;;;;4272220;33;42707;-85
2022/03/28 08:10:04;;;;;;;;;;;11.80;99.90;;;;;;4272861;33;42168;-85
2022/03/28 08:12:32;;;;;;;;;;;11.90;99.90;;;;;;4283575;33;43297;-84
2022/03/28 08:14:59;;;;;;;;;;;11.90;99.90;;;;;;4272988;33;43166;-84
2022/03/28 08:17:26;;;;;;;;;;;11.90;99.90;;;;;;4283675;33;44692;-84
2022/03/28 08:19:54;;;;;;;;;;;11.90;99.90;;;;;;4273072;33;42651;-85
2022/03/28 08:22:21;;;;;;;;;;;11.90;99.90;;;;;;4283952;33;43936;-85
2022/03/28 08:24:48;;;;;;;;;;;11.90;99.90;;;;;;4272645;33;43106;-84
2022/03/28 08:27:15;;;;;;;;;;;11.90;99.90;;;;;;4273101;33;43842;-84
2022/03/28 08:29:43;;;;;;;;;;;11.90;99.90;;;;;;4272537;33;44072;-84
2022/03/28 08:32:11;;;;;;;;;;;11.90;99.90;;;;;;4283690;33;43616;-84
2022/03/28 08:34:39;;;;;;;;;;;12.00;99.90;;;;;;4272513;33;43880;-84
2022/03/28 08:37:06;;;;;;;;;;;11.90;99.90;;;;;;4272559;33;43499;-85
2022/03/28 08:39:33;;;;;;;;;;;12.00;99.90;;;;;;4272673;33;43149;-85
2022/03/28 08:42:00;;;;;;;;;;;12.00;99.90;;;;;;4272452;33;43455;-85
2022/03/28 08:44:28;;;;;;;;;;;12.00;99.90;;;;;;4283484;33;43209;-83
2022/03/28 08:46:55;;;;;;;;;;;12.00;99.90;;;;;;4272474;33;43062;-85
2022/03/28 08:49:23;;;;;;;;;;;12.00;99.90;;;;;;4272859;33;44833;-84
2022/03/28 08:51:51;;;;;;;;;;;12.00;99.90;;;;;;4271785;33;43617;-84
2022/03/28 08:54:19;;;;;;;;;;;12.00;99.90;;;;;;4271985;33;43342;-84
2022/03/28 08:56:47;;;;;;;;;;;12.00;99.90;;;;;;4271498;33;44310;-84
2022/03/28 08:59:14;;;;;;;;;;;12.00;99.90;;;;;;4272649;33;43439;-84
2022/03/28 09:01:43;;;;;;;;;;;12.00;99.90;;;;;;4275626;33;44256;-83
2022/03/28 09:04:12;;;;;;;;;;;12.00;99.90;;;;;;4286970;33;43264;-83
2022/03/28 09:06:40;;;;;;;;;;;12.10;99.90;;;;;;4286600;33;42313;-83
2022/03/28 09:09:13;;;;;;;;;;;12.10;99.90;;;;;;4286655;33;43766;-83
2022/03/28 09:11:42;;;;;;;;;;;12.10;99.90;;;;;;4286047;33;44568;-83
2022/03/28 09:14:10;;;;;;;;;;;12.10;99.90;;;;;;4285890;33;43323;-84
2022/03/28 09:16:38;;;;;;;;;;;12.10;99.90;;;;;;4286893;33;43068;-83
2022/03/28 09:19:09;;;;;;;;;;;12.10;99.90;;;;;;4287156;33;44138;-83
2022/03/28 09:21:36;;;;;;;;;;;12.20;99.90;;;;;;4286714;33;43027;-84
2022/03/28 09:24:07;;;;;;;;;;;12.20;99.90;;;;;;4286921;33;41302;-83
2022/03/28 09:26:34;;;;;;;;;;;12.20;99.90;;;;;;4285869;33;44203;-83
2022/03/28 09:29:05;;;;;;;;;;;12.20;99.90;;;;;;4286852;33;42294;-82
2022/03/28 09:31:34;;;;;;;;;;;12.20;99.90;;;;;;4285402;33;44556;-83
2022/03/28 09:34:01;;;;;;;;;;;12.20;99.90;;;;;;4273940;33;43438;-83
2022/03/28 09:36:44;;;;;;;;;;;12.20;99.90;;;;;;4285512;33;44147;-83
2022/03/28 09:39:13;;;;;;;;;;;12.20;99.90;;;;;;4285681;33;44255;-83
2022/03/28 09:41:40;;;;;;;;;;;12.20;99.90;;;;;;4285838;33;43148;-82
2022/03/28 09:44:07;;;;;;;;;;;12.30;99.90;;;;;;4287975;33;20010;-83
2022/03/28 09:46:36;;;;;;;;;;;12.30;99.90;;;;;;4286377;33;44272;-83
2022/03/28 09:49:04;;;;;;;;;;;12.30;99.90;;;;;;4286300;33;43039;-83
2022/03/28 09:51:31;;;;;;;;;;;12.30;99.90;;;;;;4286245;33;42778;-83
2022/03/28 09:53:59;;;;;;;;;;;12.30;99.90;;;;;;4286549;33;42901;-83
2022/03/28 09:56:26;;;;;;;;;;;12.40;99.90;;;;;;4286682;33;43205;-83
2022/03/28 09:58:59;;;;;;;;;;;12.40;99.90;;;;;;4285235;33;44687;-83
2022/03/28 10:01:35;;;;;;;;;;;12.40;99.90;;;;;;4286160;33;42767;-83
2022/03/28 10:04:05;;;;;;;;;;;12.40;99.90;;;;;;4285810;33;44884;-83
2022/03/28 10:06:34;;;;;;;;;;;12.40;99.90;;;;;;4288210;33;42854;-82
2022/03/28 10:09:01;;;;;;;;;;;12.40;99.90;;;;;;4288217;33;43556;-83
2022/03/28 10:11:29;;;;;;;;;;;12.50;99.90;;;;;;4289055;33;43272;-83
2022/03/28 10:13:56;;;;;;;;;;;12.50;99.90;;;;;;4287624;33;42360;-83
2022/03/28 10:16:28;;;;;;;;;;;12.50;99.90;;;;;;4288092;33;44132;-83
2022/03/28 10:18:55;;;;;;;;;;;12.50;99.90;;;;;;4287739;33;43418;-83
2022/03/28 10:21:22;;;;;;;;;;;12.50;99.90;;;;;;4287634;33;42988;-83
2022/03/28 10:23:59;;;;;;;;;;;12.60;99.90;;;;;;4289102;33;44793;-83
2022/03/28 10:26:33;;;;;;;;;;;12.60;99.90;;;;;;4287879;33;43481;-83
2022/03/28 10:29:07;;;;;;;;;;;12.60;99.90;;;;;;4287569;33;44937;-83
2022/03/28 10:31:35;;;;;;;;;;;12.60;99.90;;;;;;4288554;33;44065;-83
2022/03/28 10:34:41;;;;;;;;;;;12.70;99.90;;;;;;4277566;33;46377;-84
2022/03/28 10:37:27;;;;;;;;;;;12.70;99.90;;;;;;4288927;33;42401;-83
2022/03/28 10:40:13;;;;;;;;;;;12.70;99.90;;;;;;4287717;33;44177;-83
2022/03/28 10:43:00;;;;;;;;;;;12.70;99.90;;;;;;4287719;33;43520;-83
2022/03/28 10:45:36;;;;;;;;;;;12.80;99.90;;;;;;4288380;33;20002;-83
2022/03/28 10:48:04;;;;;;;;;;;12.80;99.90;;;;;;4287746;33;42581;-83
2022/03/28 10:50:31;;;;;;;;;;;12.80;99.90;;;;;;4288653;33;44200;-83
2022/03/28 10:53:04;;;;;;;;;;;12.80;99.90;;;;;;4288239;33;42854;-83
2022/03/28 10:55:32;;;;;;;;;;;12.80;99.90;;;;;;4288825;33;44120;-83
2022/03/28 10:58:04;;;;;;;;;;;12.90;99.90;;;;;;4288682;33;44089;-84
2022/03/28 11:00:31;;;;;;;;;;;12.90;99.90;;;;;;4288466;33;43274;-84
2022/03/28 11:03:02;;;;;;;;;;;12.90;99.90;;;;;;4288062;33;44321;-83
2022/03/28 11:05:31;;;;;;;;;;;12.90;99.90;;;;;;4287397;33;43862;-83
2022/03/28 11:08:20;;;;;;;;;;;13.00;99.90;;;;;;4288122;33;42802;-83
2022/03/28 11:11:06;;;;;;;;;;;13.00;99.90;;;;;;4288257;33;43926;-83
2022/03/28 11:13:33;;;;;;;;;;;13.00;99.90;;;;;;4287938;33;42337;-83
2022/03/28 11:16:01;;;;;;;;;;;13.00;99.90;;;;;;4286853;33;24915;-83
2022/03/28 11:18:29;;;;;;;;;;;13.00;99.90;;;;;;4287035;33;43313;-83
2022/03/28 11:20:56;;;;;;;;;;;13.00;99.90;;;;;;4288042;33;44132;-83
2022/03/28 11:23:23;;;;;;;;;;;13.10;99.90;;;;;;4288213;33;43309;-83
2022/03/28 11:25:51;;;;;;;;;;;13.10;99.90;;;;;;4286842;33;44090;-84
2022/03/28 11:28:24;;;;;;;;;;;13.10;99.90;;;;;;4287188;33;43153;-83
2022/03/28 11:30:51;;;;;;;;;;;13.20;99.90;;;;;;4287095;33;44725;-83
2022/03/28 11:33:28;;;;;;;;;;;13.20;99.90;;;;;;4286766;33;44270;-83
2022/03/28 11:35:56;;;;;;;;;;;13.20;99.90;;;;;;4287062;33;44139;-83
2022/03/28 11:38:25;;;;;;;;;;;13.30;99.90;;;;;;4286473;33;44947;-83
2022/03/28 11:40:53;;;;;;;;;;;13.30;99.90;;;;;;4274617;33;42846;-84
2022/03/28 11:43:30;;;;;;;;;;;13.30;99.90;;;;;;4287576;33;43478;-84
2022/03/28 11:45:58;;;;;;;;;;;13.30;99.90;;;;;;4287000;33;43137;-83
2022/03/28 11:48:25;;;;;;;;;;;13.40;99.90;;;;;;4287433;33;45151;-84
2022/03/28 11:50:55;;;;;;;;;;;13.40;99.90;;;;;;4286515;33;44227;-83
2022/03/28 11:53:22;;;;;;;;;;;13.40;99.90;;;;;;4286755;33;44200;-83
2022/03/28 11:55:53;;;;;;;;;;;13.40;99.90;;;;;;4287510;33;42902;-84
2022/03/28 11:58:29;;;;;;;;;;;13.40;99.90;;;;;;4287873;33;44339;-84
2022/03/28 12:01:22;;;;;;;;;;;13.40;99.90;;;;;;4286278;33;43345;-84
2022/03/28 12:03:50;;;;;;;;;;;13.50;99.90;;;;;;4267874;33;43427;-83
2022/03/28 12:06:27;;;;;;;;;;;13.40;99.90;;;;;;4257814;33;44064;-84
2022/03/28 12:08:55;;;;;;;;;;;13.50;99.90;;;;;;4269896;33;43600;-84
2022/03/28 12:11:23;;;;;;;;;;;13.50;99.90;;;;;;4258292;33;45840;-84
2022/03/28 12:13:50;;;;;;;;;;;13.60;99.90;;;;;;4269789;33;44183;-83
2022/03/28 12:16:17;;;;;;;;;;;13.60;99.90;;;;;;4258162;33;44128;-83
2022/03/28 12:18:45;;;;;;;;;;;13.60;99.90;;;;;;4260128;33;20047;-84
2022/03/28 12:21:12;;;;;;;;;;;13.60;99.90;;;;;;4258620;33;45365;-84
2022/03/28 12:23:39;;;;;;;;;;;13.60;99.90;;;;;;4258667;33;43839;-84
2022/03/28 12:26:06;;;;;;;;;;;13.70;99.90;;;;;;4258660;33;43786;-84
2022/03/28 12:28:35;;;;;;;;;;;13.70;99.90;;;;;;4269146;33;42626;-84
2022/03/28 12:31:04;;;;;;;;;;;13.80;99.90;;;;;;4269078;33;42901;-84
2022/03/28 12:33:38;;;;;;;;;;;13.80;99.90;;;;;;4257751;33;44228;-85
2022/03/28 12:36:08;;;;;;;;;;;13.80;99.90;;;;;;4269575;33;44589;-84
2022/03/28 12:38:36;;;;;;;;;;;13.90;99.90;;;;;;4269141;33;43473;-84
2022/03/28 12:41:05;;;;;;;;;;;13.90;99.90;;;;;;4258683;33;43734;-83
2022/03/28 12:43:33;;;;;;;;;;;13.90;99.90;;;;;;4258436;33;44260;-83
2022/03/28 12:46:07;;;;;;;;;;;13.90;99.90;;;;;;4268922;33;44232;-84
2022/03/28 12:48:38;;;;;;;;;;;13.90;99.90;;;;;;4258497;33;43808;-84
2022/03/28 12:51:06;;;;;;;;;;;14.00;99.90;;;;;;4269369;33;44289;-84
2022/03/28 12:53:34;;;;;;;;;;;14.00;99.90;;;;;;4258779;33;43473;-84
2022/03/28 12:56:12;;;;;;;;;;;14.00;99.90;;;;;;4257402;33;43917;-84
2022/03/28 12:58:40;;;;;;;;;;;14.10;99.90;;;;;;4269564;33;43909;-84
2022/03/28 13:01:09;;;;;;;;;;;14.10;99.90;;;;;;4258407;33;42056;-84
2022/03/28 13:03:37;;;;;;;;;;;14.20;99.90;;;;;;4281817;33;43241;-84
2022/03/28 13:06:06;;;;;;;;;;;14.20;99.90;;;;;;4283406;33;44426;-84
2022/03/28 13:08:34;;;;;;;;;;;14.30;99.90;;;;;;4271655;33;42329;-84
2022/03/28 13:11:31;;;;;;;;;;;14.30;99.90;;;;;;4272596;33;45797;-82
2022/03/28 13:13:58;;;;;;;;;;;14.30;99.90;;;;;;4262870;33;44760;-82
2022/03/28 13:16:27;;;;;;;;;;;14.40;99.90;;;;;;4282865;33;44189;-82
2022/03/28 13:19:02;;;;;;;;;;;14.40;99.80;;;;;;4271512;33;43925;-82
2022/03/28 13:21:40;;;;;;;;;;;14.40;99.70;;;;;;4272641;33;43458;-82
2022/03/28 13:24:07;;;;;;;;;;;14.50;99.80;;;;;;4271311;33;42776;-82
2022/03/28 13:26:45;;;;;;;;;;;14.50;99.60;;;;;;4282418;33;43988;-82
2022/03/28 13:29:20;;;;;;;;;;;14.60;99.60;;;;;;4272316;33;42679;-82
2022/03/28 13:31:47;;;;;;;;;;;14.60;99.60;;;;;;4283341;33;44167;-82
2022/03/28 13:34:15;;;;;;;;;;;14.60;99.40;;;;;;4283215;33;46075;-82
2022/03/28 13:36:42;;;;;;;;;;;14.70;99.20;;;;;;4272008;33;45560;-82
2022/03/28 13:39:09;;;;;;;;;;;14.70;99.20;;;;;;4283681;33;44516;-82
2022/03/28 13:41:36;;;;;;;;;;;14.70;99.00;;;;;;4285685;33;43838;-82
2022/03/28 13:44:04;;;;;;;;;;;14.80;98.80;;;;;;4286089;33;43793;-82
2022/03/28 13:46:31;;;;;;;;;;;14.80;98.80;;;;;;4286018;33;45796;-82
2022/03/28 13:48:58;;;;;;;;;;;14.80;99.00;;;;;;4285735;33;42891;-82
2022/03/28 13:51:26;;;;;;;;;;;14.90;98.80;;;;;;4274971;33;43459;-83
2022/03/28 13:53:55;;;;;;;;;;;14.80;98.90;;;;;;4274878;33;44041;-82
2022/03/28 13:56:23;;;;;;;;;;;14.90;98.80;;;;;;4275129;33;45787;-81
2022/03/28 13:58:50;;;;;;;;;;;15.00;98.70;;;;;;4275093;33;43278;-82
2022/03/28 14:01:18;;;;;;;;;;;14.90;98.70;;;;;;4273828;33;43288;-82
2022/03/28 14:03:45;;;;;;;;;;;15.00;98.70;;;;;;4288444;33;43450;-82
2022/03/28 14:06:12;;;;;;;;;;;15.00;98.50;;;;;;4288899;33;43408;-82
2022/03/28 14:08:41;;;;;;;;;;;15.10;98.80;;;;;;4288361;33;43933;-82
2022/03/28 14:11:10;;;;;;;;;;;15.10;98.60;;;;;;4289399;33;45103;-82
2022/03/28 14:13:38;;;;;;;;;;;15.10;98.70;;;;;;4288141;33;44342;-82
2022/03/28 14:16:05;;;;;;;;;;;15.20;98.30;;;;;;4289352;33;45387;-82
2022/03/28 14:18:32;;;;;;;;;;;15.20;98.60;;;;;;4276123;33;43902;-82
2022/03/28 14:21:00;;;;;;;;;;;15.20;98.20;;;;;;4287909;33;44050;-82
2022/03/28 14:23:27;;;;;;;;;;;15.20;98.50;;;;;;4289034;33;44271;-82
2022/03/28 14:25:54;;;;;;;;;;;15.30;98.50;;;;;;4288667;33;43474;-82